Hazardville, Connecticut
Current Conditions -  °F | °C
As of 1:51 PM on Thursday 23 Oct 2014 (Local Time) from KBDL Reporting Station
Drizzle Drizzle  
Wind Chill: 53°   Ceiling: 1500
Heat Index: 53°   Visibility: 10mi
Dew Point: 46°   Wind: 20mph
Humidity: 77%   Direction: 360°N
Pressure: 29.66"   Gusts: 26mph
Location:  41.9843°N, 72.5534°W
Report Text: KBDL 231751Z 36017G23KT 10SM -DZ BKN015 OVC030 12/08 A2966 RMK AO2 PK WND 01028/1704 SLP044 RAE28DZB28 P0000 60005 T01170078 10122 20100 58003
Loading
Personal Weather Stations






























Interactive Weather Map
Tropical Storm Tracking
New forecast layout! Learn more

10-Day Weather Forecast

Advertisements
Track Severe Weather on mobile